sensor_id;sensor_type;location;lat;lon;timestamp;P1;durP1;ratioP1;P2;durP2;ratioP2
4317;SDS011;2172;53.576;9.934;2022-11-23T00:02:22;40.70;;;24.80;;
4317;SDS011;2172;53.576;9.934;2022-11-23T00:04:49;49.87;;;25.27;;
4317;SDS011;2172;53.576;9.934;2022-11-23T00:07:17;44.43;;;23.93;;
4317;SDS011;2172;53.576;9.934;2022-11-23T00:09:44;40.90;;;24.37;;
4317;SDS011;2172;53.576;9.934;2022-11-23T00:12:13;42.63;;;26.23;;
4317;SDS011;2172;53.576;9.934;2022-11-23T00:14:40;47.83;;;23.47;;
4317;SDS011;2172;53.576;9.934;2022-11-23T00:17:07;45.00;;;26.00;;
4317;SDS011;2172;53.576;9.934;2022-11-23T00:19:34;50.10;;;26.37;;
4317;SDS011;2172;53.576;9.934;2022-11-23T00:22:02;44.90;;;26.20;;
4317;SDS011;2172;53.576;9.934;2022-11-23T00:24:30;43.80;;;26.00;;
4317;SDS011;2172;53.576;9.934;2022-11-23T00:26:57;46.70;;;25.50;;
4317;SDS011;2172;53.576;9.934;2022-11-23T00:29:26;54.63;;;27.87;;
4317;SDS011;2172;53.576;9.934;2022-11-23T00:31:53;50.20;;;27.83;;
4317;SDS011;2172;53.576;9.934;2022-11-23T00:34:20;45.47;;;27.13;;
4317;SDS011;2172;53.576;9.934;2022-11-23T00:36:49;39.67;;;26.30;;
4317;SDS011;2172;53.576;9.934;2022-11-23T00:39:16;48.30;;;26.67;;
4317;SDS011;2172;53.576;9.934;2022-11-23T00:41:44;52.13;;;26.77;;
4317;SDS011;2172;53.576;9.934;2022-11-23T00:44:11;44.20;;;26.27;;
4317;SDS011;2172;53.576;9.934;2022-11-23T00:46:40;45.20;;;25.20;;
4317;SDS011;2172;53.576;9.934;2022-11-23T00:49:07;49.17;;;27.40;;
4317;SDS011;2172;53.576;9.934;2022-11-23T00:51:35;41.20;;;25.63;;
4317;SDS011;2172;53.576;9.934;2022-11-23T00:54:03;46.33;;;26.50;;
4317;SDS011;2172;53.576;9.934;2022-11-23T00:56:32;45.87;;;25.03;;
4317;SDS011;2172;53.576;9.934;2022-11-23T00:59:00;44.47;;;27.17;;
4317;SDS011;2172;53.576;9.934;2022-11-23T01:01:28;47.53;;;27.47;;
4317;SDS011;2172;53.576;9.934;2022-11-23T01:04:00;43.33;;;26.17;;
4317;SDS011;2172;53.576;9.934;2022-11-23T01:06:28;41.10;;;25.40;;
4317;SDS011;2172;53.576;9.934;2022-11-23T01:08:56;47.83;;;26.70;;
4317;SDS011;2172;53.576;9.934;2022-11-23T01:11:25;41.47;;;24.77;;
4317;SDS011;2172;53.576;9.934;2022-11-23T01:13:52;42.10;;;24.63;;
4317;SDS011;2172;53.576;9.934;2022-11-23T01:16:21;43.57;;;24.73;;
4317;SDS011;2172;53.576;9.934;2022-11-23T01:18:50;55.87;;;26.53;;
4317;SDS011;2172;53.576;9.934;2022-11-23T01:21:19;46.67;;;25.87;;
4317;SDS011;2172;53.576;9.934;2022-11-23T01:23:46;47.10;;;26.60;;
4317;SDS011;2172;53.576;9.934;2022-11-23T01:26:14;45.00;;;25.73;;
4317;SDS011;2172;53.576;9.934;2022-11-23T01:28:41;46.03;;;25.27;;
4317;SDS011;2172;53.576;9.934;2022-11-23T01:31:09;47.27;;;26.90;;
4317;SDS011;2172;53.576;9.934;2022-11-23T01:33:37;46.23;;;26.33;;
4317;SDS011;2172;53.576;9.934;2022-11-23T01:36:08;41.80;;;24.07;;
4317;SDS011;2172;53.576;9.934;2022-11-23T01:38:37;45.37;;;25.73;;
4317;SDS011;2172;53.576;9.934;2022-11-23T01:41:05;43.40;;;25.30;;
4317;SDS011;2172;53.576;9.934;2022-11-23T01:43:32;43.03;;;25.07;;
4317;SDS011;2172;53.576;9.934;2022-11-23T01:46:00;43.00;;;24.37;;
4317;SDS011;2172;53.576;9.934;2022-11-23T01:48:29;43.07;;;26.33;;
4317;SDS011;2172;53.576;9.934;2022-11-23T01:50:57;40.10;;;23.97;;
4317;SDS011;2172;53.576;9.934;2022-11-23T01:53:25;42.90;;;26.47;;
4317;SDS011;2172;53.576;9.934;2022-11-23T01:55:55;45.03;;;25.50;;
4317;SDS011;2172;53.576;9.934;2022-11-23T01:58:24;39.93;;;24.30;;
4317;SDS011;2172;53.576;9.934;2022-11-23T02:00:53;39.00;;;24.00;;
4317;SDS011;2172;53.576;9.934;2022-11-23T02:03:20;47.17;;;25.70;;
4317;SDS011;2172;53.576;9.934;2022-11-23T02:05:49;39.43;;;23.53;;
4317;SDS011;2172;53.576;9.934;2022-11-23T02:08:18;42.40;;;24.87;;
4317;SDS011;2172;53.576;9.934;2022-11-23T02:10:46;38.60;;;23.27;;
4317;SDS011;2172;53.576;9.934;2022-11-23T02:13:15;37.60;;;22.23;;
4317;SDS011;2172;53.576;9.934;2022-11-23T02:15:44;40.03;;;23.97;;
4317;SDS011;2172;53.576;9.934;2022-11-23T02:18:15;39.93;;;23.70;;
4317;SDS011;2172;53.576;9.934;2022-11-23T02:20:43;37.40;;;22.97;;
4317;SDS011;2172;53.576;9.934;2022-11-23T02:23:15;40.97;;;24.97;;
4317;SDS011;2172;53.576;9.934;2022-11-23T02:25:52;37.97;;;24.70;;
4317;SDS011;2172;53.576;9.934;2022-11-23T02:28:21;39.37;;;24.00;;
4317;SDS011;2172;53.576;9.934;2022-11-23T02:30:50;36.50;;;20.77;;
4317;SDS011;2172;53.576;9.934;2022-11-23T02:33:21;40.63;;;21.60;;
4317;SDS011;2172;53.576;9.934;2022-11-23T02:35:50;41.83;;;24.37;;
4317;SDS011;2172;53.576;9.934;2022-11-23T02:38:18;39.80;;;24.50;;
4317;SDS011;2172;53.576;9.934;2022-11-23T02:40:45;39.67;;;23.50;;
4317;SDS011;2172;53.576;9.934;2022-11-23T02:43:14;43.30;;;24.13;;
4317;SDS011;2172;53.576;9.934;2022-11-23T02:45:45;40.90;;;23.73;;
4317;SDS011;2172;53.576;9.934;2022-11-23T02:48:14;36.40;;;22.30;;
4317;SDS011;2172;53.576;9.934;2022-11-23T02:50:41;39.23;;;23.73;;
4317;SDS011;2172;53.576;9.934;2022-11-23T02:53:09;38.83;;;23.70;;
4317;SDS011;2172;53.576;9.934;2022-11-23T02:55:36;38.20;;;24.03;;
4317;SDS011;2172;53.576;9.934;2022-11-23T02:58:04;40.57;;;24.03;;
4317;SDS011;2172;53.576;9.934;2022-11-23T03:00:33;36.57;;;21.87;;
4317;SDS011;2172;53.576;9.934;2022-11-23T03:03:01;39.27;;;22.50;;
4317;SDS011;2172;53.576;9.934;2022-11-23T03:05:28;41.30;;;22.70;;
4317;SDS011;2172;53.576;9.934;2022-11-23T03:07:55;37.57;;;23.47;;
4317;SDS011;2172;53.576;9.934;2022-11-23T03:10:23;39.63;;;23.40;;
4317;SDS011;2172;53.576;9.934;2022-11-23T03:12:53;34.70;;;21.07;;
4317;SDS011;2172;53.576;9.934;2022-11-23T03:15:21;38.70;;;23.67;;
4317;SDS011;2172;53.576;9.934;2022-11-23T03:17:52;32.47;;;21.40;;
4317;SDS011;2172;53.576;9.934;2022-11-23T03:20:19;33.63;;;22.07;;
4317;SDS011;2172;53.576;9.934;2022-11-23T03:22:49;41.00;;;23.63;;
4317;SDS011;2172;53.576;9.934;2022-11-23T03:25:18;38.40;;;22.60;;
4317;SDS011;2172;53.576;9.934;2022-11-23T03:27:48;39.13;;;23.13;;
4317;SDS011;2172;53.576;9.934;2022-11-23T03:30:17;35.20;;;20.53;;
4317;SDS011;2172;53.576;9.934;2022-11-23T03:32:45;37.97;;;22.53;;
4317;SDS011;2172;53.576;9.934;2022-11-23T03:35:14;37.83;;;21.67;;
4317;SDS011;2172;53.576;9.934;2022-11-23T03:38:00;31.70;;;20.87;;
4317;SDS011;2172;53.576;9.934;2022-11-23T03:40:29;36.80;;;22.33;;
4317;SDS011;2172;53.576;9.934;2022-11-23T03:43:13;32.40;;;21.93;;
4317;SDS011;2172;53.576;9.934;2022-11-23T03:45:40;35.90;;;20.63;;
4317;SDS011;2172;53.576;9.934;2022-11-23T03:48:08;42.53;;;22.73;;
4317;SDS011;2172;53.576;9.934;2022-11-23T03:50:37;39.67;;;22.43;;
4317;SDS011;2172;53.576;9.934;2022-11-23T03:53:04;38.90;;;21.63;;
4317;SDS011;2172;53.576;9.934;2022-11-23T03:55:32;35.10;;;21.43;;
4317;SDS011;2172;53.576;9.934;2022-11-23T03:58:01;35.27;;;21.30;;
4317;SDS011;2172;53.576;9.934;2022-11-23T04:00:32;36.87;;;22.83;;
4317;SDS011;2172;53.576;9.934;2022-11-23T04:03:00;34.47;;;20.80;;
4317;SDS011;2172;53.576;9.934;2022-11-23T04:05:48;39.47;;;21.40;;
4317;SDS011;2172;53.576;9.934;2022-11-23T04:08:34;33.87;;;21.80;;
4317;SDS011;2172;53.576;9.934;2022-11-23T04:11:07;35.23;;;21.53;;
4317;SDS011;2172;53.576;9.934;2022-11-23T04:13:37;35.33;;;20.37;;
4317;SDS011;2172;53.576;9.934;2022-11-23T04:16:06;33.87;;;20.20;;
4317;SDS011;2172;53.576;9.934;2022-11-23T04:18:35;36.53;;;21.60;;
4317;SDS011;2172;53.576;9.934;2022-11-23T04:21:05;35.43;;;22.30;;
4317;SDS011;2172;53.576;9.934;2022-11-23T04:23:32;32.90;;;21.10;;
4317;SDS011;2172;53.576;9.934;2022-11-23T04:26:02;37.67;;;21.67;;
4317;SDS011;2172;53.576;9.934;2022-11-23T04:28:29;31.23;;;19.53;;
4317;SDS011;2172;53.576;9.934;2022-11-23T04:30:56;37.77;;;21.87;;
4317;SDS011;2172;53.576;9.934;2022-11-23T04:33:27;39.77;;;22.13;;
4317;SDS011;2172;53.576;9.934;2022-11-23T04:35:56;34.70;;;20.77;;
4317;SDS011;2172;53.576;9.934;2022-11-23T04:38:25;31.93;;;20.40;;
4317;SDS011;2172;53.576;9.934;2022-11-23T04:40:52;33.27;;;21.40;;
4317;SDS011;2172;53.576;9.934;2022-11-23T04:43:20;38.80;;;21.10;;
4317;SDS011;2172;53.576;9.934;2022-11-23T04:45:48;31.30;;;20.10;;
4317;SDS011;2172;53.576;9.934;2022-11-23T04:48:22;42.97;;;21.00;;
4317;SDS011;2172;53.576;9.934;2022-11-23T04:50:52;31.40;;;19.70;;
4317;SDS011;2172;53.576;9.934;2022-11-23T04:53:27;31.70;;;20.90;;
4317;SDS011;2172;53.576;9.934;2022-11-23T04:55:55;34.57;;;19.90;;
4317;SDS011;2172;53.576;9.934;2022-11-23T04:58:22;31.40;;;19.83;;
4317;SDS011;2172;53.576;9.934;2022-11-23T05:01:04;38.43;;;20.60;;
4317;SDS011;2172;53.576;9.934;2022-11-23T05:03:38;33.20;;;20.67;;
4317;SDS011;2172;53.576;9.934;2022-11-23T05:06:08;32.87;;;20.33;;
4317;SDS011;2172;53.576;9.934;2022-11-23T05:08:41;33.53;;;21.33;;
4317;SDS011;2172;53.576;9.934;2022-11-23T05:11:32;33.40;;;20.27;;
4317;SDS011;2172;53.576;9.934;2022-11-23T05:14:01;34.90;;;21.10;;
4317;SDS011;2172;53.576;9.934;2022-11-23T05:16:30;31.00;;;19.57;;
4317;SDS011;2172;53.576;9.934;2022-11-23T05:18:58;35.00;;;21.47;;
4317;SDS011;2172;53.576;9.934;2022-11-23T05:21:25;32.57;;;21.13;;
4317;SDS011;2172;53.576;9.934;2022-11-23T05:23:54;33.23;;;20.30;;
4317;SDS011;2172;53.576;9.934;2022-11-23T05:26:22;33.67;;;21.30;;
4317;SDS011;2172;53.576;9.934;2022-11-23T05:28:51;35.30;;;21.00;;
4317;SDS011;2172;53.576;9.934;2022-11-23T05:31:18;32.37;;;21.10;;
4317;SDS011;2172;53.576;9.934;2022-11-23T05:33:46;31.97;;;19.80;;
4317;SDS011;2172;53.576;9.934;2022-11-23T05:36:19;32.40;;;21.17;;
4317;SDS011;2172;53.576;9.934;2022-11-23T05:38:46;31.00;;;20.60;;
4317;SDS011;2172;53.576;9.934;2022-11-23T05:41:22;32.10;;;20.87;;
4317;SDS011;2172;53.576;9.934;2022-11-23T05:43:54;31.83;;;20.30;;
4317;SDS011;2172;53.576;9.934;2022-11-23T05:46:25;26.60;;;19.13;;
4317;SDS011;2172;53.576;9.934;2022-11-23T05:48:52;34.20;;;20.63;;
4317;SDS011;2172;53.576;9.934;2022-11-23T05:51:21;40.17;;;21.20;;
4317;SDS011;2172;53.576;9.934;2022-11-23T05:53:49;32.70;;;20.00;;
4317;SDS011;2172;53.576;9.934;2022-11-23T05:56:35;38.33;;;21.27;;
4317;SDS011;2172;53.576;9.934;2022-11-23T05:59:09;30.47;;;19.60;;
4317;SDS011;2172;53.576;9.934;2022-11-23T06:01:39;34.27;;;21.80;;
4317;SDS011;2172;53.576;9.934;2022-11-23T06:04:08;32.93;;;21.70;;
4317;SDS011;2172;53.576;9.934;2022-11-23T06:06:40;34.17;;;20.43;;
4317;SDS011;2172;53.576;9.934;2022-11-23T06:09:08;29.13;;;20.70;;
4317;SDS011;2172;53.576;9.934;2022-11-23T06:11:39;31.40;;;19.93;;
4317;SDS011;2172;53.576;9.934;2022-11-23T06:14:12;29.63;;;18.87;;
4317;SDS011;2172;53.576;9.934;2022-11-23T06:16:43;32.60;;;19.40;;
4317;SDS011;2172;53.576;9.934;2022-11-23T06:19:30;32.80;;;20.33;;
4317;SDS011;2172;53.576;9.934;2022-11-23T06:21:59;35.47;;;19.87;;
4317;SDS011;2172;53.576;9.934;2022-11-23T06:24:30;32.27;;;19.97;;
4317;SDS011;2172;53.576;9.934;2022-11-23T06:27:17;33.17;;;19.13;;
4317;SDS011;2172;53.576;9.934;2022-11-23T06:29:48;30.60;;;20.00;;
4317;SDS011;2172;53.576;9.934;2022-11-23T06:32:16;33.30;;;20.10;;
4317;SDS011;2172;53.576;9.934;2022-11-23T06:34:43;33.27;;;20.20;;
4317;SDS011;2172;53.576;9.934;2022-11-23T06:37:11;37.13;;;20.40;;
4317;SDS011;2172;53.576;9.934;2022-11-23T06:39:39;36.10;;;20.23;;
4317;SDS011;2172;53.576;9.934;2022-11-23T06:42:06;31.47;;;19.40;;
4317;SDS011;2172;53.576;9.934;2022-11-23T06:44:35;32.10;;;18.30;;
4317;SDS011;2172;53.576;9.934;2022-11-23T06:47:03;28.53;;;18.80;;
4317;SDS011;2172;53.576;9.934;2022-11-23T06:49:30;36.10;;;19.80;;
4317;SDS011;2172;53.576;9.934;2022-11-23T06:52:10;34.80;;;19.17;;
4317;SDS011;2172;53.576;9.934;2022-11-23T06:54:38;31.50;;;19.80;;
4317;SDS011;2172;53.576;9.934;2022-11-23T06:57:07;29.70;;;19.57;;
4317;SDS011;2172;53.576;9.934;2022-11-23T06:59:35;35.67;;;21.40;;
4317;SDS011;2172;53.576;9.934;2022-11-23T07:02:04;33.97;;;19.87;;
4317;SDS011;2172;53.576;9.934;2022-11-23T07:04:34;27.77;;;18.23;;
4317;SDS011;2172;53.576;9.934;2022-11-23T07:07:06;35.87;;;20.17;;
4317;SDS011;2172;53.576;9.934;2022-11-23T07:09:42;28.70;;;19.00;;
4317;SDS011;2172;53.576;9.934;2022-11-23T07:12:30;30.50;;;18.63;;
4317;SDS011;2172;53.576;9.934;2022-11-23T07:15:00;37.30;;;20.17;;
4317;SDS011;2172;53.576;9.934;2022-11-23T07:17:34;34.20;;;22.73;;
4317;SDS011;2172;53.576;9.934;2022-11-23T07:20:05;28.67;;;18.00;;
4317;SDS011;2172;53.576;9.934;2022-11-23T07:22:32;32.60;;;18.30;;
4317;SDS011;2172;53.576;9.934;2022-11-23T07:25:00;28.63;;;17.90;;
4317;SDS011;2172;53.576;9.934;2022-11-23T07:27:27;26.53;;;18.50;;
4317;SDS011;2172;53.576;9.934;2022-11-23T07:29:55;26.43;;;16.43;;
4317;SDS011;2172;53.576;9.934;2022-11-23T07:32:24;31.50;;;18.33;;
4317;SDS011;2172;53.576;9.934;2022-11-23T07:34:53;27.17;;;16.53;;
4317;SDS011;2172;53.576;9.934;2022-11-23T07:37:20;26.13;;;17.40;;
4317;SDS011;2172;53.576;9.934;2022-11-23T07:39:48;24.77;;;15.50;;
4317;SDS011;2172;53.576;9.934;2022-11-23T07:42:17;28.43;;;16.60;;
4317;SDS011;2172;53.576;9.934;2022-11-23T07:44:44;28.10;;;17.90;;
4317;SDS011;2172;53.576;9.934;2022-11-23T07:47:12;27.43;;;16.10;;
4317;SDS011;2172;53.576;9.934;2022-11-23T07:49:41;28.97;;;16.07;;
4317;SDS011;2172;53.576;9.934;2022-11-23T07:52:08;26.80;;;15.97;;
4317;SDS011;2172;53.576;9.934;2022-11-23T07:54:36;22.47;;;15.60;;
4317;SDS011;2172;53.576;9.934;2022-11-23T07:57:03;25.67;;;15.67;;
4317;SDS011;2172;53.576;9.934;2022-11-23T07:59:31;28.53;;;16.97;;
4317;SDS011;2172;53.576;9.934;2022-11-23T08:01:58;22.10;;;16.40;;
4317;SDS011;2172;53.576;9.934;2022-11-23T08:04:26;22.97;;;15.83;;
4317;SDS011;2172;53.576;9.934;2022-11-23T08:06:55;24.70;;;15.93;;
4317;SDS011;2172;53.576;9.934;2022-11-23T08:09:23;33.63;;;17.50;;
4317;SDS011;2172;53.576;9.934;2022-11-23T08:11:50;27.40;;;16.63;;
4317;SDS011;2172;53.576;9.934;2022-11-23T08:14:17;27.30;;;15.77;;
4317;SDS011;2172;53.576;9.934;2022-11-23T08:16:47;21.57;;;15.60;;
4317;SDS011;2172;53.576;9.934;2022-11-23T08:19:14;26.53;;;15.77;;
4317;SDS011;2172;53.576;9.934;2022-11-23T08:21:42;25.03;;;15.80;;
4317;SDS011;2172;53.576;9.934;2022-11-23T08:24:11;28.57;;;15.50;;
4317;SDS011;2172;53.576;9.934;2022-11-23T08:26:38;22.10;;;14.73;;
4317;SDS011;2172;53.576;9.934;2022-11-23T08:29:05;23.43;;;16.20;;
4317;SDS011;2172;53.576;9.934;2022-11-23T08:31:33;22.77;;;15.33;;
4317;SDS011;2172;53.576;9.934;2022-11-23T08:34:00;20.63;;;15.23;;
4317;SDS011;2172;53.576;9.934;2022-11-23T08:36:28;25.83;;;13.60;;
4317;SDS011;2172;53.576;9.934;2022-11-23T08:38:55;22.27;;;14.57;;
4317;SDS011;2172;53.576;9.934;2022-11-23T08:41:24;21.00;;;13.60;;
4317;SDS011;2172;53.576;9.934;2022-11-23T08:43:51;20.57;;;13.97;;
4317;SDS011;2172;53.576;9.934;2022-11-23T08:46:18;19.80;;;12.53;;
4317;SDS011;2172;53.576;9.934;2022-11-23T08:48:46;22.83;;;13.67;;
4317;SDS011;2172;53.576;9.934;2022-11-23T08:51:13;28.47;;;12.83;;
4317;SDS011;2172;53.576;9.934;2022-11-23T08:53:46;22.80;;;13.23;;
4317;SDS011;2172;53.576;9.934;2022-11-23T08:56:14;15.73;;;11.70;;
4317;SDS011;2172;53.576;9.934;2022-11-23T08:58:43;21.07;;;13.33;;
4317;SDS011;2172;53.576;9.934;2022-11-23T09:01:10;21.33;;;12.17;;
4317;SDS011;2172;53.576;9.934;2022-11-23T09:03:38;18.87;;;13.30;;
4317;SDS011;2172;53.576;9.934;2022-11-23T09:06:05;16.90;;;12.30;;
4317;SDS011;2172;53.576;9.934;2022-11-23T09:08:33;17.17;;;11.10;;
4317;SDS011;2172;53.576;9.934;2022-11-23T09:11:31;18.73;;;11.50;;
4317;SDS011;2172;53.576;9.934;2022-11-23T09:14:00;18.10;;;11.50;;
4317;SDS011;2172;53.576;9.934;2022-11-23T09:16:27;20.73;;;10.87;;
4317;SDS011;2172;53.576;9.934;2022-11-23T09:18:55;15.00;;;11.63;;
4317;SDS011;2172;53.576;9.934;2022-11-23T09:21:23;21.20;;;11.93;;
4317;SDS011;2172;53.576;9.934;2022-11-23T09:23:55;15.20;;;10.80;;
4317;SDS011;2172;53.576;9.934;2022-11-23T09:26:22;16.70;;;10.77;;
4317;SDS011;2172;53.576;9.934;2022-11-23T09:28:51;18.13;;;10.60;;
4317;SDS011;2172;53.576;9.934;2022-11-23T09:31:19;14.93;;;9.87;;
4317;SDS011;2172;53.576;9.934;2022-11-23T09:33:50;11.17;;;9.30;;
4317;SDS011;2172;53.576;9.934;2022-11-23T09:36:18;15.53;;;10.47;;
4317;SDS011;2172;53.576;9.934;2022-11-23T09:38:47;13.40;;;9.67;;
4317;SDS011;2172;53.576;9.934;2022-11-23T09:41:20;12.40;;;9.43;;
4317;SDS011;2172;53.576;9.934;2022-11-23T09:43:51;14.20;;;9.97;;
4317;SDS011;2172;53.576;9.934;2022-11-23T09:46:28;12.00;;;9.57;;
4317;SDS011;2172;53.576;9.934;2022-11-23T09:49:09;20.40;;;10.83;;
4317;SDS011;2172;53.576;9.934;2022-11-23T09:51:38;13.80;;;9.83;;
4317;SDS011;2172;53.576;9.934;2022-11-23T09:54:09;19.43;;;10.30;;
4317;SDS011;2172;53.576;9.934;2022-11-23T09:56:37;13.80;;;9.57;;
4317;SDS011;2172;53.576;9.934;2022-11-23T09:59:09;15.20;;;9.30;;
4317;SDS011;2172;53.576;9.934;2022-11-23T10:01:39;14.97;;;9.30;;
4317;SDS011;2172;53.576;9.934;2022-11-23T10:04:08;17.70;;;8.53;;
4317;SDS011;2172;53.576;9.934;2022-11-23T10:06:36;11.93;;;9.10;;
4317;SDS011;2172;53.576;9.934;2022-11-23T10:09:17;13.53;;;8.63;;
4317;SDS011;2172;53.576;9.934;2022-11-23T10:11:50;14.43;;;9.60;;
4317;SDS011;2172;53.576;9.934;2022-11-23T10:14:24;13.03;;;9.00;;
4317;SDS011;2172;53.576;9.934;2022-11-23T10:16:58;12.37;;;9.17;;
4317;SDS011;2172;53.576;9.934;2022-11-23T10:19:31;14.57;;;9.13;;
4317;SDS011;2172;53.576;9.934;2022-11-23T10:22:01;16.30;;;8.30;;
4317;SDS011;2172;53.576;9.934;2022-11-23T10:24:32;12.70;;;8.90;;
4317;SDS011;2172;53.576;9.934;2022-11-23T10:27:00;12.63;;;8.90;;
4317;SDS011;2172;53.576;9.934;2022-11-23T10:29:29;13.13;;;9.17;;
4317;SDS011;2172;53.576;9.934;2022-11-23T10:31:58;12.63;;;9.27;;
4317;SDS011;2172;53.576;9.934;2022-11-23T10:34:36;9.00;;;7.40;;
4317;SDS011;2172;53.576;9.934;2022-11-23T10:37:06;11.57;;;7.70;;
4317;SDS011;2172;53.576;9.934;2022-11-23T10:39:34;10.90;;;7.50;;
4317;SDS011;2172;53.576;9.934;2022-11-23T10:42:03;10.20;;;8.60;;
4317;SDS011;2172;53.576;9.934;2022-11-23T10:44:36;12.10;;;8.57;;
4317;SDS011;2172;53.576;9.934;2022-11-23T10:47:05;8.80;;;7.23;;
4317;SDS011;2172;53.576;9.934;2022-11-23T10:49:33;12.60;;;7.73;;
4317;SDS011;2172;53.576;9.934;2022-11-23T10:52:01;10.90;;;8.67;;
4317;SDS011;2172;53.576;9.934;2022-11-23T10:54:30;14.63;;;8.50;;
4317;SDS011;2172;53.576;9.934;2022-11-23T10:56:58;9.07;;;7.80;;
4317;SDS011;2172;53.576;9.934;2022-11-23T10:59:36;11.40;;;7.60;;
4317;SDS011;2172;53.576;9.934;2022-11-23T11:02:16;10.70;;;7.97;;
4317;SDS011;2172;53.576;9.934;2022-11-23T11:04:44;13.50;;;8.27;;
4317;SDS011;2172;53.576;9.934;2022-11-23T11:07:21;9.90;;;7.70;;
4317;SDS011;2172;53.576;9.934;2022-11-23T11:09:50;11.50;;;7.93;;
4317;SDS011;2172;53.576;9.934;2022-11-23T11:12:18;10.83;;;7.73;;
4317;SDS011;2172;53.576;9.934;2022-11-23T11:14:55;15.37;;;7.17;;
4317;SDS011;2172;53.576;9.934;2022-11-23T11:17:28;14.80;;;8.37;;
4317;SDS011;2172;53.576;9.934;2022-11-23T11:19:55;11.57;;;7.90;;
4317;SDS011;2172;53.576;9.934;2022-11-23T11:22:24;12.80;;;8.20;;
4317;SDS011;2172;53.576;9.934;2022-11-23T11:24:52;9.77;;;7.40;;
4317;SDS011;2172;53.576;9.934;2022-11-23T11:27:21;9.47;;;6.13;;
4317;SDS011;2172;53.576;9.934;2022-11-23T11:29:49;10.10;;;6.90;;
4317;SDS011;2172;53.576;9.934;2022-11-23T11:32:18;10.13;;;6.40;;
4317;SDS011;2172;53.576;9.934;2022-11-23T11:34:49;16.00;;;7.83;;
4317;SDS011;2172;53.576;9.934;2022-11-23T11:37:22;11.70;;;7.10;;
4317;SDS011;2172;53.576;9.934;2022-11-23T11:39:54;9.70;;;6.53;;
4317;SDS011;2172;53.576;9.934;2022-11-23T11:42:26;7.33;;;6.23;;
4317;SDS011;2172;53.576;9.934;2022-11-23T11:44:57;12.90;;;6.60;;
4317;SDS011;2172;53.576;9.934;2022-11-23T11:47:27;11.20;;;6.93;;
4317;SDS011;2172;53.576;9.934;2022-11-23T11:49:58;17.37;;;8.30;;
4317;SDS011;2172;53.576;9.934;2022-11-23T11:52:28;13.67;;;7.43;;
4317;SDS011;2172;53.576;9.934;2022-11-23T11:55:00;9.77;;;6.90;;
4317;SDS011;2172;53.576;9.934;2022-11-23T11:57:29;11.40;;;7.50;;
4317;SDS011;2172;53.576;9.934;2022-11-23T11:59:57;10.70;;;7.03;;
4317;SDS011;2172;53.576;9.934;2022-11-23T12:02:30;9.60;;;5.87;;
4317;SDS011;2172;53.576;9.934;2022-11-23T12:05:03;16.73;;;7.10;;
4317;SDS011;2172;53.576;9.934;2022-11-23T12:07:34;10.23;;;6.10;;
4317;SDS011;2172;53.576;9.934;2022-11-23T12:10:04;9.60;;;6.50;;
4317;SDS011;2172;53.576;9.934;2022-11-23T12:12:32;9.80;;;6.20;;
4317;SDS011;2172;53.576;9.934;2022-11-23T12:15:00;12.90;;;7.00;;
4317;SDS011;2172;53.576;9.934;2022-11-23T12:20:18;10.47;;;6.10;;
4317;SDS011;2172;53.576;9.934;2022-11-23T12:22:50;10.80;;;6.30;;
4317;SDS011;2172;53.576;9.934;2022-11-23T12:25:23;11.77;;;6.90;;
4317;SDS011;2172;53.576;9.934;2022-11-23T12:27:59;11.43;;;6.50;;
4317;SDS011;2172;53.576;9.934;2022-11-23T12:30:33;8.70;;;6.50;;
4317;SDS011;2172;53.576;9.934;2022-11-23T12:33:11;8.20;;;6.30;;
4317;SDS011;2172;53.576;9.934;2022-11-23T12:35:47;9.17;;;6.60;;
4317;SDS011;2172;53.576;9.934;2022-11-23T12:38:28;10.23;;;6.43;;
4317;SDS011;2172;53.576;9.934;2022-11-23T12:40:59;7.63;;;5.80;;
4317;SDS011;2172;53.576;9.934;2022-11-23T12:43:30;12.10;;;5.87;;
4317;SDS011;2172;53.576;9.934;2022-11-23T12:46:02;10.00;;;5.50;;
4317;SDS011;2172;53.576;9.934;2022-11-23T12:48:35;11.80;;;6.37;;
4317;SDS011;2172;53.576;9.934;2022-11-23T12:51:16;12.63;;;5.63;;
4317;SDS011;2172;53.576;9.934;2022-11-23T12:53:49;13.00;;;6.20;;
4317;SDS011;2172;53.576;9.934;2022-11-23T12:56:23;12.77;;;5.93;;
4317;SDS011;2172;53.576;9.934;2022-11-23T12:58:55;9.83;;;6.70;;
4317;SDS011;2172;53.576;9.934;2022-11-23T13:01:24;12.87;;;5.77;;
4317;SDS011;2172;53.576;9.934;2022-11-23T13:04:07;9.70;;;5.80;;
4317;SDS011;2172;53.576;9.934;2022-11-23T13:09:34;7.70;;;6.13;;
4317;SDS011;2172;53.576;9.934;2022-11-23T13:12:08;9.63;;;6.40;;
4317;SDS011;2172;53.576;9.934;2022-11-23T13:14:38;10.00;;;5.27;;
4317;SDS011;2172;53.576;9.934;2022-11-23T13:17:16;9.13;;;5.33;;
4317;SDS011;2172;53.576;9.934;2022-11-23T13:19:51;10.23;;;7.17;;
4317;SDS011;2172;53.576;9.934;2022-11-23T13:22:20;9.47;;;5.67;;
4317;SDS011;2172;53.576;9.934;2022-11-23T13:25:00;9.23;;;5.33;;
4317;SDS011;2172;53.576;9.934;2022-11-23T13:27:28;13.13;;;4.97;;
4317;SDS011;2172;53.576;9.934;2022-11-23T13:29:56;10.00;;;5.67;;
4317;SDS011;2172;53.576;9.934;2022-11-23T13:32:41;10.63;;;5.70;;
4317;SDS011;2172;53.576;9.934;2022-11-23T13:40:39;5.83;;;4.40;;
4317;SDS011;2172;53.576;9.934;2022-11-23T13:43:09;8.20;;;4.73;;
4317;SDS011;2172;53.576;9.934;2022-11-23T13:45:40;5.17;;;4.67;;
4317;SDS011;2172;53.576;9.934;2022-11-23T13:48:14;9.90;;;4.90;;
4317;SDS011;2172;53.576;9.934;2022-11-23T13:50:59;9.03;;;4.60;;
4317;SDS011;2172;53.576;9.934;2022-11-23T13:53:28;9.03;;;5.17;;
4317;SDS011;2172;53.576;9.934;2022-11-23T13:55:59;7.63;;;5.10;;
4317;SDS011;2172;53.576;9.934;2022-11-23T13:58:48;7.77;;;5.27;;
4317;SDS011;2172;53.576;9.934;2022-11-23T14:04:17;5.87;;;4.60;;
4317;SDS011;2172;53.576;9.934;2022-11-23T14:06:46;10.10;;;5.23;;
4317;SDS011;2172;53.576;9.934;2022-11-23T14:09:18;15.93;;;5.63;;
4317;SDS011;2172;53.576;9.934;2022-11-23T14:11:50;8.43;;;4.83;;
4317;SDS011;2172;53.576;9.934;2022-11-23T14:14:20;7.40;;;4.50;;
4317;SDS011;2172;53.576;9.934;2022-11-23T14:16:55;5.90;;;4.27;;
4317;SDS011;2172;53.576;9.934;2022-11-23T14:19:30;6.77;;;4.37;;
4317;SDS011;2172;53.576;9.934;2022-11-23T14:22:02;8.20;;;4.80;;
4317;SDS011;2172;53.576;9.934;2022-11-23T14:24:41;10.27;;;4.87;;
4317;SDS011;2172;53.576;9.934;2022-11-23T14:27:19;7.67;;;4.33;;
4317;SDS011;2172;53.576;9.934;2022-11-23T14:32:44;6.43;;;4.80;;
4317;SDS011;2172;53.576;9.934;2022-11-23T14:35:21;9.43;;;4.00;;
4317;SDS011;2172;53.576;9.934;2022-11-23T14:37:55;6.20;;;4.57;;
4317;SDS011;2172;53.576;9.934;2022-11-23T14:40:27;7.20;;;4.80;;
4317;SDS011;2172;53.576;9.934;2022-11-23T14:42:57;8.70;;;4.30;;
4317;SDS011;2172;53.576;9.934;2022-11-23T14:45:27;10.70;;;5.07;;
4317;SDS011;2172;53.576;9.934;2022-11-23T14:47:55;8.00;;;4.50;;
4317;SDS011;2172;53.576;9.934;2022-11-23T14:50:23;9.97;;;5.50;;
4317;SDS011;2172;53.576;9.934;2022-11-23T14:52:51;6.67;;;4.10;;
4317;SDS011;2172;53.576;9.934;2022-11-23T14:55:20;8.97;;;4.57;;
4317;SDS011;2172;53.576;9.934;2022-11-23T14:57:48;10.97;;;5.20;;
4317;SDS011;2172;53.576;9.934;2022-11-23T15:00:25;8.03;;;4.77;;
4317;SDS011;2172;53.576;9.934;2022-11-23T15:02:53;11.43;;;4.93;;
4317;SDS011;2172;53.576;9.934;2022-11-23T15:05:22;8.33;;;4.43;;
4317;SDS011;2172;53.576;9.934;2022-11-23T15:07:50;9.20;;;5.93;;
4317;SDS011;2172;53.576;9.934;2022-11-23T15:10:33;10.23;;;5.90;;
4317;SDS011;2172;53.576;9.934;2022-11-23T15:13:14;10.20;;;6.00;;
4317;SDS011;2172;53.576;9.934;2022-11-23T15:15:44;22.07;;;7.40;;
4317;SDS011;2172;53.576;9.934;2022-11-23T15:18:12;9.70;;;7.37;;
4317;SDS011;2172;53.576;9.934;2022-11-23T15:20:52;8.23;;;6.93;;
4317;SDS011;2172;53.576;9.934;2022-11-23T15:23:20;14.57;;;7.50;;
4317;SDS011;2172;53.576;9.934;2022-11-23T15:25:51;14.73;;;7.27;;
4317;SDS011;2172;53.576;9.934;2022-11-23T15:28:21;9.03;;;7.90;;
4317;SDS011;2172;53.576;9.934;2022-11-23T15:30:51;12.30;;;7.77;;
4317;SDS011;2172;53.576;9.934;2022-11-23T15:33:18;13.47;;;8.10;;